sensor_id;sensor_type;location;lat;lon;timestamp;pressure;altitude;pressure_sealevel;temperature;humidity
61026;BME280;46911;32.650;-16.902;2023-09-07T00:01:38;101185.22;;;20.50;100.00
61026;BME280;46911;32.650;-16.902;2023-09-07T00:03:46;101182.19;;;20.53;100.00
61026;BME280;46911;32.650;-16.902;2023-09-07T00:05:47;101180.50;;;20.52;100.00
61026;BME280;46911;32.650;-16.902;2023-09-07T00:07:48;101189.81;;;20.50;100.00
61026;BME280;46911;32.650;-16.902;2023-09-07T00:09:49;101195.34;;;20.48;100.00
61026;BME280;46911;32.650;-16.902;2023-09-07T00:11:50;101188.09;;;20.49;100.00
61026;BME280;46911;32.650;-16.902;2023-09-07T00:13:54;101190.81;;;20.49;100.00
61026;BME280;46911;32.650;-16.902;2023-09-07T00:16:02;101188.72;;;20.43;100.00
61026;BME280;46911;32.650;-16.902;2023-09-07T00:18:05;101185.84;;;20.44;100.00
61026;BME280;46911;32.650;-16.902;2023-09-07T00:20:09;101187.88;;;20.42;99.42
61026;BME280;46911;32.650;-16.902;2023-09-07T00:22:17;101186.16;;;20.41;99.86
61026;BME280;46911;32.650;-16.902;2023-09-07T00:24:20;101188.72;;;20.43;99.65
61026;BME280;46911;32.650;-16.902;2023-09-07T00:26:21;101183.13;;;20.44;99.06
61026;BME280;46911;32.650;-16.902;2023-09-07T00:28:22;101179.91;;;20.40;98.79
61026;BME280;46911;32.650;-16.902;2023-09-07T00:30:23;101188.72;;;20.43;99.03
61026;BME280;46911;32.650;-16.902;2023-09-07T00:32:24;101176.31;;;20.40;98.58
61026;BME280;46911;32.650;-16.902;2023-09-07T00:34:27;101184.78;;;20.37;98.29
61026;BME280;46911;32.650;-16.902;2023-09-07T00:36:28;101179.59;;;20.44;98.12
61026;BME280;46911;32.650;-16.902;2023-09-07T00:38:29;101185.00;;;20.44;97.79
61026;BME280;46911;32.650;-16.902;2023-09-07T00:40:30;101180.41;;;20.44;98.38
61026;BME280;46911;32.650;-16.902;2023-09-07T00:42:31;101178.25;;;20.48;98.45
61026;BME280;46911;32.650;-16.902;2023-09-07T00:44:33;101179.97;;;20.49;98.47
61026;BME280;46911;32.650;-16.902;2023-09-07T00:46:39;101173.38;;;20.51;98.03
61026;BME280;46911;32.650;-16.902;2023-09-07T00:48:40;101173.53;;;20.50;97.80
61026;BME280;46911;32.650;-16.902;2023-09-07T00:50:42;101165.88;;;20.45;96.31
61026;BME280;46911;32.650;-16.902;2023-09-07T00:52:44;101177.78;;;20.52;96.37
61026;BME280;46911;32.650;-16.902;2023-09-07T00:54:47;101170.50;;;20.53;96.27
61026;BME280;46911;32.650;-16.902;2023-09-07T00:56:53;101164.75;;;20.56;95.60
61026;BME280;46911;32.650;-16.902;2023-09-07T00:58:57;101170.66;;;20.51;95.84
61026;BME280;46911;32.650;-16.902;2023-09-07T01:01:00;101179.47;;;20.53;96.12
61026;BME280;46911;32.650;-16.902;2023-09-07T01:03:01;101176.31;;;20.58;94.88
61026;BME280;46911;32.650;-16.902;2023-09-07T01:05:06;101174.22;;;20.52;94.42
61026;BME280;46911;32.650;-16.902;2023-09-07T01:07:20;101185.59;;;20.55;94.25
61026;BME280;46911;32.650;-16.902;2023-09-07T01:09:24;101189.00;;;20.57;93.70
61026;BME280;46911;32.650;-16.902;2023-09-07T01:11:36;101188.47;;;20.54;93.76
61026;BME280;46911;32.650;-16.902;2023-09-07T01:13:39;101188.53;;;20.62;93.46
61026;BME280;46911;32.650;-16.902;2023-09-07T01:15:43;101189.69;;;20.60;92.71
61026;BME280;46911;32.650;-16.902;2023-09-07T01:17:47;101187.88;;;20.68;92.62
61026;BME280;46911;32.650;-16.902;2023-09-07T01:19:54;101193.69;;;20.73;91.62
61026;BME280;46911;32.650;-16.902;2023-09-07T01:22:00;101196.94;;;20.77;91.31
61026;BME280;46911;32.650;-16.902;2023-09-07T01:24:04;101178.13;;;20.76;90.56
61026;BME280;46911;32.650;-16.902;2023-09-07T01:26:08;101186.69;;;20.89;90.23
61026;BME280;46911;32.650;-16.902;2023-09-07T01:28:10;101198.75;;;20.95;89.81
61026;BME280;46911;32.650;-16.902;2023-09-07T01:30:13;101183.34;;;20.95;89.43
61026;BME280;46911;32.650;-16.902;2023-09-07T01:32:15;101176.59;;;20.99;89.03
61026;BME280;46911;32.650;-16.902;2023-09-07T01:34:16;101190.72;;;21.11;88.68
61026;BME280;46911;32.650;-16.902;2023-09-07T01:36:19;101185.50;;;21.18;88.12
61026;BME280;46911;32.650;-16.902;2023-09-07T01:38:23;101178.88;;;21.20;87.98
61026;BME280;46911;32.650;-16.902;2023-09-07T01:40:24;101171.25;;;21.24;87.48
61026;BME280;46911;32.650;-16.902;2023-09-07T01:42:25;101182.63;;;21.28;87.50
61026;BME280;46911;32.650;-16.902;2023-09-07T01:44:28;101171.44;;;21.22;88.04
61026;BME280;46911;32.650;-16.902;2023-09-07T01:46:32;101183.47;;;21.28;88.55
61026;BME280;46911;32.650;-16.902;2023-09-07T01:48:36;101191.16;;;21.33;88.97
61026;BME280;46911;32.650;-16.902;2023-09-07T01:50:38;101180.41;;;21.23;89.06
61026;BME280;46911;32.650;-16.902;2023-09-07T01:52:42;101180.06;;;21.18;89.16
61026;BME280;46911;32.650;-16.902;2023-09-07T01:54:43;101164.59;;;21.10;89.46
61026;BME280;46911;32.650;-16.902;2023-09-07T01:56:43;101163.06;;;21.07;89.67
61026;BME280;46911;32.650;-16.902;2023-09-07T01:58:45;101169.69;;;21.13;90.48
61026;BME280;46911;32.650;-16.902;2023-09-07T02:00:46;101172.56;;;21.12;90.77
61026;BME280;46911;32.650;-16.902;2023-09-07T02:02:47;101165.59;;;21.09;90.28
61026;BME280;46911;32.650;-16.902;2023-09-07T02:04:50;101174.91;;;21.06;90.54
61026;BME280;46911;32.650;-16.902;2023-09-07T02:06:51;101177.78;;;21.05;90.68
61026;BME280;46911;32.650;-16.902;2023-09-07T02:08:54;101170.66;;;21.04;90.52
61026;BME280;46911;32.650;-16.902;2023-09-07T02:10:59;101169.28;;;21.00;90.35
61026;BME280;46911;32.650;-16.902;2023-09-07T02:13:03;101173.88;;;20.99;90.47
61026;BME280;46911;32.650;-16.902;2023-09-07T02:15:05;101174.19;;;20.96;90.27
61026;BME280;46911;32.650;-16.902;2023-09-07T02:17:08;101169.09;;;20.93;90.20
61026;BME280;46911;32.650;-16.902;2023-09-07T02:19:09;101143.91;;;20.74;89.28
61026;BME280;46911;32.650;-16.902;2023-09-07T02:21:16;101169.72;;;20.87;89.56
61026;BME280;46911;32.650;-16.902;2023-09-07T02:23:20;101167.00;;;20.87;89.80
61026;BME280;46911;32.650;-16.902;2023-09-07T02:25:21;101151.88;;;20.76;90.06
61026;BME280;46911;32.650;-16.902;2023-09-07T02:27:22;101164.78;;;20.82;89.19
61026;BME280;46911;32.650;-16.902;2023-09-07T02:29:25;101151.03;;;20.76;88.08
61026;BME280;46911;32.650;-16.902;2023-09-07T02:31:29;101157.63;;;20.73;88.02
61026;BME280;46911;32.650;-16.902;2023-09-07T02:33:29;101169.00;;;20.77;88.66
61026;BME280;46911;32.650;-16.902;2023-09-07T02:35:31;101165.59;;;20.74;88.60
61026;BME280;46911;32.650;-16.902;2023-09-07T02:37:31;101160.75;;;20.68;89.38
61026;BME280;46911;32.650;-16.902;2023-09-07T02:39:35;101152.13;;;20.65;89.37
61026;BME280;46911;32.650;-16.902;2023-09-07T02:41:38;101154.66;;;20.66;89.56
61026;BME280;46911;32.650;-16.902;2023-09-07T02:43:42;101153.97;;;20.64;89.87
61026;BME280;46911;32.650;-16.902;2023-09-07T02:45:46;101154.13;;;20.63;90.08
61026;BME280;46911;32.650;-16.902;2023-09-07T02:47:49;101128.47;;;20.49;90.10
61026;BME280;46911;32.650;-16.902;2023-09-07T02:49:54;101147.50;;;20.57;90.15
61026;BME280;46911;32.650;-16.902;2023-09-07T02:51:55;101153.75;;;20.57;89.43
61026;BME280;46911;32.650;-16.902;2023-09-07T02:53:58;101161.75;;;20.59;88.70
61026;BME280;46911;32.650;-16.902;2023-09-07T02:56:04;101159.03;;;20.59;89.04
61026;BME280;46911;32.650;-16.902;2023-09-07T02:58:05;101156.13;;;20.52;88.70
61026;BME280;46911;32.650;-16.902;2023-09-07T03:00:07;101158.13;;;20.50;88.46
61026;BME280;46911;32.650;-16.902;2023-09-07T03:02:12;101158.97;;;20.51;88.71
61026;BME280;46911;32.650;-16.902;2023-09-07T03:04:13;101166.09;;;20.52;87.93
61026;BME280;46911;32.650;-16.902;2023-09-07T03:06:15;101161.53;;;20.52;87.54
61026;BME280;46911;32.650;-16.902;2023-09-07T03:08:22;101150.47;;;20.46;87.32
61026;BME280;46911;32.650;-16.902;2023-09-07T03:10:25;101164.38;;;20.51;87.26
61026;BME280;46911;32.650;-16.902;2023-09-07T03:12:27;101150.63;;;20.44;86.60
61026;BME280;46911;32.650;-16.902;2023-09-07T03:14:28;101160.84;;;20.50;86.30
61026;BME280;46911;32.650;-16.902;2023-09-07T03:16:29;101155.56;;;20.49;86.16
61026;BME280;46911;32.650;-16.902;2023-09-07T03:18:31;101161.38;;;20.54;85.58
61026;BME280;46911;32.650;-16.902;2023-09-07T03:20:35;101157.75;;;20.45;85.27
61026;BME280;46911;32.650;-16.902;2023-09-07T03:22:37;101164.53;;;20.49;84.73
61026;BME280;46911;32.650;-16.902;2023-09-07T03:24:38;101157.56;;;20.47;84.60
61026;BME280;46911;32.650;-16.902;2023-09-07T03:26:45;101170.84;;;20.50;83.95
61026;BME280;46911;32.650;-16.902;2023-09-07T03:28:49;101159.91;;;20.41;83.41
61026;BME280;46911;32.650;-16.902;2023-09-07T03:30:50;101166.03;;;20.44;83.38
61026;BME280;46911;32.650;-16.902;2023-09-07T03:32:54;101163.94;;;20.37;83.78
61026;BME280;46911;32.650;-16.902;2023-09-07T03:34:55;101163.94;;;20.37;83.36
61026;BME280;46911;32.650;-16.902;2023-09-07T03:36:56;101165.09;;;20.35;83.14
61026;BME280;46911;32.650;-16.902;2023-09-07T03:38:59;101155.09;;;20.27;82.49
61026;BME280;46911;32.650;-16.902;2023-09-07T03:41:00;101159.63;;;20.27;82.54
61026;BME280;46911;32.650;-16.902;2023-09-07T03:43:01;101174.56;;;20.31;82.01
61026;BME280;46911;32.650;-16.902;2023-09-07T03:45:03;101160.84;;;20.32;82.31
61026;BME280;46911;32.650;-16.902;2023-09-07T03:47:04;101170.19;;;20.30;82.43
61026;BME280;46911;32.650;-16.902;2023-09-07T03:49:08;101168.97;;;20.32;82.84
61026;BME280;46911;32.650;-16.902;2023-09-07T03:51:09;101172.00;;;20.29;82.29
61026;BME280;46911;32.650;-16.902;2023-09-07T03:53:10;101164.53;;;20.23;82.66
61026;BME280;46911;32.650;-16.902;2023-09-07T03:55:14;101139.00;;;20.07;83.54
61026;BME280;46911;32.650;-16.902;2023-09-07T03:57:15;101160.41;;;20.19;83.69
61026;BME280;46911;32.650;-16.902;2023-09-07T03:59:16;101154.31;;;20.17;83.09
61026;BME280;46911;32.650;-16.902;2023-09-07T04:01:23;101165.81;;;20.19;83.14
61026;BME280;46911;32.650;-16.902;2023-09-07T04:03:28;101166.00;;;20.17;82.84
61026;BME280;46911;32.650;-16.902;2023-09-07T04:05:33;101162.28;;;20.18;82.51
61026;BME280;46911;32.650;-16.902;2023-09-07T04:07:33;101172.94;;;20.20;82.24
61026;BME280;46911;32.650;-16.902;2023-09-07T04:09:39;101169.72;;;20.16;82.50
61026;BME280;46911;32.650;-16.902;2023-09-07T04:11:44;101167.53;;;20.20;82.18
61026;BME280;46911;32.650;-16.902;2023-09-07T04:13:45;101169.84;;;20.15;82.50
61026;BME280;46911;32.650;-16.902;2023-09-07T04:15:45;101176.66;;;20.19;82.47
61026;BME280;46911;32.650;-16.902;2023-09-07T04:17:50;101174.97;;;20.18;81.84
61026;BME280;46911;32.650;-16.902;2023-09-07T04:19:51;101175.50;;;20.21;81.62
61026;BME280;46911;32.650;-16.902;2023-09-07T04:21:52;101173.13;;;20.18;81.44
61026;BME280;46911;32.650;-16.902;2023-09-07T04:23:55;101174.13;;;20.17;81.15
61026;BME280;46911;32.650;-16.902;2023-09-07T04:26:08;101173.94;;;20.19;81.22
61026;BME280;46911;32.650;-16.902;2023-09-07T04:28:11;101167.69;;;20.18;80.99
61026;BME280;46911;32.650;-16.902;2023-09-07T04:30:15;101169.56;;;20.18;81.19
61026;BME280;46911;32.650;-16.902;2023-09-07T04:32:19;101169.56;;;20.18;80.85
61026;BME280;46911;32.650;-16.902;2023-09-07T04:34:23;101165.31;;;20.15;81.03
61026;BME280;46911;32.650;-16.902;2023-09-07T04:36:25;101160.19;;;20.12;80.68
61026;BME280;46911;32.650;-16.902;2023-09-07T04:38:25;101146.75;;;20.02;80.10
61026;BME280;46911;32.650;-16.902;2023-09-07T04:40:26;101166.16;;;20.16;80.76
61026;BME280;46911;32.650;-16.902;2023-09-07T04:42:30;101180.09;;;20.21;80.85
61026;BME280;46911;32.650;-16.902;2023-09-07T04:44:30;101183.50;;;20.23;81.27
61026;BME280;46911;32.650;-16.902;2023-09-07T04:46:32;101169.84;;;20.15;80.89
61026;BME280;46911;32.650;-16.902;2023-09-07T04:48:33;101181.78;;;20.22;80.66
61026;BME280;46911;32.650;-16.902;2023-09-07T04:50:37;101179.75;;;20.24;81.25
61026;BME280;46911;32.650;-16.902;2023-09-07T04:52:38;101180.63;;;20.24;81.38
61026;BME280;46911;32.650;-16.902;2023-09-07T04:54:39;101172.66;;;20.23;80.36
61026;BME280;46911;32.650;-16.902;2023-09-07T04:56:40;101160.72;;;20.16;79.26
61026;BME280;46911;32.650;-16.902;2023-09-07T04:58:46;101160.72;;;20.16;78.80
61026;BME280;46911;32.650;-16.902;2023-09-07T05:00:47;101171.25;;;20.19;79.12
61026;BME280;46911;32.650;-16.902;2023-09-07T05:02:51;101171.19;;;20.11;79.37
61026;BME280;46911;32.650;-16.902;2023-09-07T05:04:54;101181.09;;;20.20;78.32
61026;BME280;46911;32.650;-16.902;2023-09-07T05:06:56;101182.63;;;20.22;77.93
61026;BME280;46911;32.650;-16.902;2023-09-07T05:08:57;101178.69;;;20.17;77.98
61026;BME280;46911;32.650;-16.902;2023-09-07T05:11:02;101187.03;;;20.23;78.29
61026;BME280;46911;32.650;-16.902;2023-09-07T05:13:06;101161.38;;;20.10;78.25
61026;BME280;46911;32.650;-16.902;2023-09-07T05:15:07;101184.78;;;20.19;77.89
61026;BME280;46911;32.650;-16.902;2023-09-07T05:17:08;101186.09;;;20.15;77.87
61026;BME280;46911;32.650;-16.902;2023-09-07T05:19:15;101176.59;;;20.11;77.82
61026;BME280;46911;32.650;-16.902;2023-09-07T05:21:17;101183.19;;;20.08;78.58
61026;BME280;46911;32.650;-16.902;2023-09-07T05:23:18;101175.22;;;20.06;78.54
61026;BME280;46911;32.650;-16.902;2023-09-07T05:25:21;101171.13;;;20.02;78.56
61026;BME280;46911;32.650;-16.902;2023-09-07T05:27:26;101166.53;;;20.03;77.81
61026;BME280;46911;32.650;-16.902;2023-09-07T05:29:29;101168.47;;;20.11;76.70
61026;BME280;46911;32.650;-16.902;2023-09-07T05:31:33;101160.13;;;20.04;77.06
61026;BME280;46911;32.650;-16.902;2023-09-07T05:33:37;101175.91;;;20.09;77.57
61026;BME280;46911;32.650;-16.902;2023-09-07T05:35:38;101160.28;;;20.02;78.09
61026;BME280;46911;32.650;-16.902;2023-09-07T05:37:39;101165.94;;;20.09;78.79
61026;BME280;46911;32.650;-16.902;2023-09-07T05:39:40;101167.78;;;20.09;79.51
61026;BME280;46911;32.650;-16.902;2023-09-07T05:41:41;101164.09;;;20.10;79.83
61026;BME280;46911;32.650;-16.902;2023-09-07T05:43:42;101165.16;;;19.99;79.94
61026;BME280;46911;32.650;-16.902;2023-09-07T05:45:46;101165.69;;;20.02;79.56
61026;BME280;46911;32.650;-16.902;2023-09-07T05:47:50;101170.28;;;20.02;79.73
61026;BME280;46911;32.650;-16.902;2023-09-07T05:49:54;101164.00;;;20.01;79.56
61026;BME280;46911;32.650;-16.902;2023-09-07T05:51:55;101160.59;;;19.99;78.74
61026;BME280;46911;32.650;-16.902;2023-09-07T05:54:01;101162.75;;;19.96;78.34
61026;BME280;46911;32.650;-16.902;2023-09-07T05:56:03;101152.03;;;19.86;78.88
61026;BME280;46911;32.650;-16.902;2023-09-07T05:58:06;101156.66;;;19.94;78.84
61026;BME280;46911;32.650;-16.902;2023-09-07T06:00:12;101148.19;;;19.79;78.14
61026;BME280;46911;32.650;-16.902;2023-09-07T06:02:17;101161.53;;;19.90;76.23
61026;BME280;46911;32.650;-16.902;2023-09-07T06:04:18;101159.44;;;19.84;75.24
61026;BME280;46911;32.650;-16.902;2023-09-07T06:06:21;101161.59;;;19.80;75.80
61026;BME280;46911;32.650;-16.902;2023-09-07T06:08:23;101161.47;;;19.82;75.73
61026;BME280;46911;32.650;-16.902;2023-09-07T06:10:30;101176.66;;;19.83;75.98
61026;BME280;46911;32.650;-16.902;2023-09-07T06:12:33;101166.06;;;19.71;76.01
61026;BME280;46911;32.650;-16.902;2023-09-07T06:14:34;101173.84;;;19.74;75.83
61026;BME280;46911;32.650;-16.902;2023-09-07T06:16:37;101183.84;;;19.74;76.44
61026;BME280;46911;32.650;-16.902;2023-09-07T06:18:38;101174.47;;;19.68;75.99
61026;BME280;46911;32.650;-16.902;2023-09-07T06:20:39;101191.41;;;19.70;75.31
61026;BME280;46911;32.650;-16.902;2023-09-07T06:22:43;101179.19;;;19.66;75.10
61026;BME280;46911;32.650;-16.902;2023-09-07T06:24:49;101176.78;;;19.63;74.86
61026;BME280;46911;32.650;-16.902;2023-09-07T06:26:52;101191.00;;;19.65;75.35
61026;BME280;46911;32.650;-16.902;2023-09-07T06:28:58;101182.81;;;19.57;75.97
61026;BME280;46911;32.650;-16.902;2023-09-07T06:31:01;101190.59;;;19.60;75.75
61026;BME280;46911;32.650;-16.902;2023-09-07T06:33:04;101192.63;;;19.58;75.46
61026;BME280;46911;32.650;-16.902;2023-09-07T06:35:08;101198.72;;;19.60;75.29
61026;BME280;46911;32.650;-16.902;2023-09-07T06:37:11;101192.63;;;19.58;74.86
61026;BME280;46911;32.650;-16.902;2023-09-07T06:39:13;101198.19;;;19.56;75.05
61026;BME280;46911;32.650;-16.902;2023-09-07T06:41:14;101182.31;;;19.44;74.87
61026;BME280;46911;32.650;-16.902;2023-09-07T06:43:18;101191.41;;;19.52;75.33
61026;BME280;46911;32.650;-16.902;2023-09-07T06:45:20;101201.06;;;19.55;75.44
61026;BME280;46911;32.650;-16.902;2023-09-07T06:47:24;101210.41;;;19.61;75.18
61026;BME280;46911;32.650;-16.902;2023-09-07T06:49:25;101215.84;;;19.61;74.69
61026;BME280;46911;32.650;-16.902;2023-09-07T06:51:31;101214.53;;;19.65;74.50
61026;BME280;46911;32.650;-16.902;2023-09-07T06:53:32;101214.22;;;19.68;74.60
61026;BME280;46911;32.650;-16.902;2023-09-07T06:55:33;101214.94;;;19.70;74.59
61026;BME280;46911;32.650;-16.902;2023-09-07T06:57:39;101203.53;;;19.66;74.78
61026;BME280;46911;32.650;-16.902;2023-09-07T06:59:46;101219.19;;;19.72;75.01
61026;BME280;46911;32.650;-16.902;2023-09-07T07:01:47;101218.56;;;19.79;74.91
61026;BME280;46911;32.650;-16.902;2023-09-07T07:03:51;101229.38;;;19.88;73.77
61026;BME280;46911;32.650;-16.902;2023-09-07T07:05:55;101227.97;;;19.84;74.03
61026;BME280;46911;32.650;-16.902;2023-09-07T07:07:56;101238.50;;;19.87;74.03
61026;BME280;46911;32.650;-16.902;2023-09-07T07:10:00;101235.22;;;19.84;74.43
61026;BME280;46911;32.650;-16.902;2023-09-07T07:12:02;101235.94;;;19.86;74.52
61026;BME280;46911;32.650;-16.902;2023-09-07T07:14:03;101223.84;;;19.80;74.62
61026;BME280;46911;32.650;-16.902;2023-09-07T07:16:04;101238.50;;;19.87;74.69
61026;BME280;46911;32.650;-16.902;2023-09-07T07:18:07;101232.09;;;19.88;74.66
61026;BME280;46911;32.650;-16.902;2023-09-07T07:20:10;101244.47;;;19.91;75.16
61026;BME280;46911;32.650;-16.902;2023-09-07T07:22:14;101250.56;;;19.93;74.98
61026;BME280;46911;32.650;-16.902;2023-09-07T07:24:16;101245.38;;;20.00;74.66
61026;BME280;46911;32.650;-16.902;2023-09-07T07:26:19;101247.50;;;20.06;75.36
61026;BME280;46911;32.650;-16.902;2023-09-07T07:28:20;101227.97;;;20.02;74.67
61026;BME280;46911;32.650;-16.902;2023-09-07T07:30:22;101232.63;;;20.10;74.65
61026;BME280;46911;32.650;-16.902;2023-09-07T07:32:26;101238.28;;;20.17;74.43
61026;BME280;46911;32.650;-16.902;2023-09-07T07:34:30;101223.97;;;20.24;74.34
61026;BME280;46911;32.650;-16.902;2023-09-07T07:36:32;101240.13;;;20.34;74.38
61026;BME280;46911;32.650;-16.902;2023-09-07T07:38:36;101235.94;;;20.40;74.70
61026;BME280;46911;32.650;-16.902;2023-09-07T07:40:37;101244.28;;;20.47;74.73
61026;BME280;46911;32.650;-16.902;2023-09-07T07:42:38;101245.00;;;20.49;74.91
61026;BME280;46911;32.650;-16.902;2023-09-07T07:44:39;101237.41;;;20.52;75.00
61026;BME280;46911;32.650;-16.902;2023-09-07T07:46:40;101255.13;;;20.65;75.05
61026;BME280;46911;32.650;-16.902;2023-09-07T07:48:41;101252.66;;;20.71;74.86
61026;BME280;46911;32.650;-16.902;2023-09-07T07:50:43;101239.13;;;20.71;75.03
61026;BME280;46911;32.650;-16.902;2023-09-07T07:52:47;101250.38;;;20.85;74.72
61026;BME280;46911;32.650;-16.902;2023-09-07T07:54:51;101249.44;;;20.94;74.67
61026;BME280;46911;32.650;-16.902;2023-09-07T07:56:51;101219.56;;;20.86;74.10
61026;BME280;46911;32.650;-16.902;2023-09-07T07:58:56;101244.09;;;21.11;73.98
61026;BME280;46911;32.650;-16.902;2023-09-07T08:00:57;101239.38;;;21.13;73.93
61026;BME280;46911;32.650;-16.902;2023-09-07T08:03:18;101257.44;;;21.30;73.61
61026;BME280;46911;32.650;-16.902;2023-09-07T08:05:20;101249.31;;;21.30;73.35
61026;BME280;46911;32.650;-16.902;2023-09-07T08:07:23;101259.69;;;21.43;73.21
61026;BME280;46911;32.650;-16.902;2023-09-07T08:09:29;101264.47;;;21.49;73.50
61026;BME280;46911;32.650;-16.902;2023-09-07T08:11:30;101244.63;;;21.49;73.11
61026;BME280;46911;32.650;-16.902;2023-09-07T08:13:34;101242.16;;;21.55;73.33
61026;BME280;46911;32.650;-16.902;2023-09-07T08:15:37;101254.41;;;21.68;73.13
61026;BME280;46911;32.650;-16.902;2023-09-07T08:17:41;101247.09;;;21.68;72.91
61026;BME280;46911;32.650;-16.902;2023-09-07T08:19:42;101263.63;;;21.83;73.11
61026;BME280;46911;32.650;-16.902;2023-09-07T08:21:45;101275.19;;;21.94;73.05
61026;BME280;46911;32.650;-16.902;2023-09-07T08:23:52;101277.91;;;22.02;73.31
61026;BME280;46911;32.650;-16.902;2023-09-07T08:25:56;101276.09;;;22.11;73.19
61026;BME280;46911;32.650;-16.902;2023-09-07T08:27:59;101277.09;;;22.18;73.11
61026;BME280;46911;32.650;-16.902;2023-09-07T08:30:00;101284.94;;;22.29;73.10
61026;BME280;46911;32.650;-16.902;2023-09-07T08:32:01;101279.16;;;22.32;73.16
61026;BME280;46911;32.650;-16.902;2023-09-07T08:34:06;101287.53;;;22.47;73.07
61026;BME280;46911;32.650;-16.902;2023-09-07T08:36:09;101287.56;;;22.55;72.85
61026;BME280;46911;32.650;-16.902;2023-09-07T08:38:19;101286.19;;;22.60;72.25
61026;BME280;46911;32.650;-16.902;2023-09-07T08:40:23;101291.63;;;22.76;71.71
61026;BME280;46911;32.650;-16.902;2023-09-07T08:42:27;101280.41;;;22.79;71.64
61026;BME280;46911;32.650;-16.902;2023-09-07T08:44:29;101285.16;;;22.94;71.24
61026;BME280;46911;32.650;-16.902;2023-09-07T08:46:33;101281.38;;;23.03;70.61
61026;BME280;46911;32.650;-16.902;2023-09-07T08:48:34;101278.81;;;23.10;69.71
61026;BME280;46911;32.650;-16.902;2023-09-07T08:50:36;101283.91;;;23.21;69.85
61026;BME280;46911;32.650;-16.902;2023-09-07T08:52:41;101294.78;;;23.37;69.55
61026;BME280;46911;32.650;-16.902;2023-09-07T08:54:49;101285.75;;;23.45;69.06
61026;BME280;46911;32.650;-16.902;2023-09-07T08:56:51;101292.31;;;23.59;68.67
61026;BME280;46911;32.650;-16.902;2023-09-07T08:58:54;101311.50;;;23.74;68.11
61026;BME280;46911;32.650;-16.902;2023-09-07T09:00:55;101302.75;;;23.87;67.38
61026;BME280;46911;32.650;-16.902;2023-09-07T09:02:58;101313.06;;;24.08;67.30
61026;BME280;46911;32.650;-16.902;2023-09-07T09:05:00;101301.66;;;24.36;66.85
61026;BME280;46911;32.650;-16.902;2023-09-07T09:07:01;101302.41;;;24.91;66.70
61026;BME280;46911;32.650;-16.902;2023-09-07T09:09:04;101304.75;;;25.62;64.13
61026;BME280;46911;32.650;-16.902;2023-09-07T09:11:08;101320.19;;;26.36;62.24
61026;BME280;46911;32.650;-16.902;2023-09-07T09:13:11;101314.03;;;26.56;61.16
61026;BME280;46911;32.650;-16.902;2023-09-07T09:15:12;101319.66;;;27.19;59.45
61026;BME280;46911;32.650;-16.902;2023-09-07T09:17:14;101319.06;;;27.59;57.93
61026;BME280;46911;32.650;-16.902;2023-09-07T09:19:18;101321.63;;;28.02;58.19
61026;BME280;46911;32.650;-16.902;2023-09-07T09:21:23;101311.84;;;27.93;56.76
61026;BME280;46911;32.650;-16.902;2023-09-07T09:23:34;101311.50;;;28.10;55.46
61026;BME280;46911;32.650;-16.902;2023-09-07T09:25:40;101325.06;;;28.31;57.75
61026;BME280;46911;32.650;-16.902;2023-09-07T09:27:46;101324.59;;;28.08;59.94
61026;BME280;46911;32.650;-16.902;2023-09-07T09:29:49;101319.72;;;28.10;60.11
61026;BME280;46911;32.650;-16.902;2023-09-07T09:31:51;101329.31;;;28.40;59.21
61026;BME280;46911;32.650;-16.902;2023-09-07T09:33:53;101324.44;;;28.29;60.30
61026;BME280;46911;32.650;-16.902;2023-09-07T09:35:54;101321.56;;;28.64;59.70
61026;BME280;46911;32.650;-16.902;2023-09-07T09:38:01;101337.22;;;28.84;59.00
61026;BME280;46911;32.650;-16.902;2023-09-07T09:40:06;101323.66;;;29.16;58.71
61026;BME280;46911;32.650;-16.902;2023-09-07T09:42:12;101336.47;;;29.62;57.02
61026;BME280;46911;32.650;-16.902;2023-09-07T09:44:17;101336.53;;;29.22;56.74
61026;BME280;46911;32.650;-16.902;2023-09-07T09:46:24;101342.03;;;29.09;56.28
61026;BME280;46911;32.650;-16.902;2023-09-07T09:48:34;101329.38;;;29.34;56.17
61026;BME280;46911;32.650;-16.902;2023-09-07T09:50:40;101326.97;;;29.58;55.00
61026;BME280;46911;32.650;-16.902;2023-09-07T09:52:41;101342.66;;;29.44;55.47
61026;BME280;46911;32.650;-16.902;2023-09-07T09:54:46;101335.69;;;29.21;56.78
61026;BME280;46911;32.650;-16.902;2023-09-07T09:56:47;101330.22;;;28.68;56.98
61026;BME280;46911;32.650;-16.902;2023-09-07T09:58:48;101349.03;;;28.84;56.89
61026;BME280;46911;32.650;-16.902;2023-09-07T10:00:55;101336.56;;;28.95;57.38
61026;BME280;46911;32.650;-16.902;2023-09-07T10:03:05;101333.38;;;29.18;56.29
61026;BME280;46911;32.650;-16.902;2023-09-07T10:05:08;101339.09;;;29.30;56.46
61026;BME280;46911;32.650;-16.902;2023-09-07T10:07:12;101341.00;;;29.16;56.40
61026;BME280;46911;32.650;-16.902;2023-09-07T10:09:18;101344.19;;;30.05;54.28
61026;BME280;46911;32.650;-16.902;2023-09-07T10:11:29;101334.25;;;30.36;52.02
61026;BME280;46911;32.650;-16.902;2023-09-07T10:13:32;101345.00;;;30.06;53.31
61026;BME280;46911;32.650;-16.902;2023-09-07T10:15:34;101343.31;;;30.76;52.84
61026;BME280;46911;32.650;-16.902;2023-09-07T10:17:41;101351.06;;;30.92;53.44
61026;BME280;46911;32.650;-16.902;2023-09-07T10:19:42;101341.34;;;30.19;55.51
61026;BME280;46911;32.650;-16.902;2023-09-07T10:21:55;101344.25;;;29.85;56.26
61026;BME280;46911;32.650;-16.902;2023-09-07T10:23:56;101352.66;;;28.16;60.82
61026;BME280;46911;32.650;-16.902;2023-09-07T10:25:59;101365.69;;;27.66;62.84
61026;BME280;46911;32.650;-16.902;2023-09-07T10:28:00;101360.47;;;27.78;62.14